sensor_id;sensor_type;location;lat;lon;timestamp;temperature;humidity
41924;DHT22;27613;48.116;11.656;2023-04-01T00:00:19;7.60;99.90
41924;DHT22;27613;48.116;11.656;2023-04-01T00:02:45;7.60;99.90
41924;DHT22;27613;48.116;11.656;2023-04-01T00:05:11;7.50;99.90
41924;DHT22;27613;48.116;11.656;2023-04-01T00:07:38;7.50;99.90
41924;DHT22;27613;48.116;11.656;2023-04-01T00:10:09;7.40;99.90
41924;DHT22;27613;48.116;11.656;2023-04-01T00:12:35;7.40;99.90
41924;DHT22;27613;48.116;11.656;2023-04-01T00:15:02;7.40;99.90
41924;DHT22;27613;48.116;11.656;2023-04-01T00:17:27;7.40;99.90
41924;DHT22;27613;48.116;11.656;2023-04-01T00:19:56;7.40;99.90
41924;DHT22;27613;48.116;11.656;2023-04-01T00:22:22;7.40;99.90
41924;DHT22;27613;48.116;11.656;2023-04-01T00:24:48;7.40;99.90
41924;DHT22;27613;48.116;11.656;2023-04-01T00:27:14;7.30;99.90
41924;DHT22;27613;48.116;11.656;2023-04-01T00:29:42;7.40;99.90
41924;DHT22;27613;48.116;11.656;2023-04-01T00:32:08;7.30;99.90
41924;DHT22;27613;48.116;11.656;2023-04-01T00:34:34;7.30;99.90
41924;DHT22;27613;48.116;11.656;2023-04-01T00:36:59;7.30;99.90
41924;DHT22;27613;48.116;11.656;2023-04-01T00:39:28;7.30;99.90
41924;DHT22;27613;48.116;11.656;2023-04-01T00:41:53;7.20;99.90
41924;DHT22;27613;48.116;11.656;2023-04-01T00:44:22;7.20;99.90
41924;DHT22;27613;48.116;11.656;2023-04-01T00:46:48;7.20;99.90
41924;DHT22;27613;48.116;11.656;2023-04-01T00:49:17;7.20;99.90
41924;DHT22;27613;48.116;11.656;2023-04-01T00:51:45;7.20;99.90
41924;DHT22;27613;48.116;11.656;2023-04-01T00:54:14;7.20;99.90
41924;DHT22;27613;48.116;11.656;2023-04-01T00:57:02;7.20;99.90
41924;DHT22;27613;48.116;11.656;2023-04-01T00:59:34;7.10;99.90
41924;DHT22;27613;48.116;11.656;2023-04-01T01:02:02;7.10;99.90
41924;DHT22;27613;48.116;11.656;2023-04-01T01:04:30;7.10;99.90
41924;DHT22;27613;48.116;11.656;2023-04-01T01:07:07;7.20;99.90
41924;DHT22;27613;48.116;11.656;2023-04-01T01:13:01;7.30;99.90
41924;DHT22;27613;48.116;11.656;2023-04-01T01:17:49;7.30;99.90
41924;DHT22;27613;48.116;11.656;2023-04-01T01:20:55;7.20;99.90
41924;DHT22;27613;48.116;11.656;2023-04-01T01:23:57;7.30;99.90
41924;DHT22;27613;48.116;11.656;2023-04-01T01:35:40;7.40;99.90
41924;DHT22;27613;48.116;11.656;2023-04-01T01:38:16;7.50;99.90
41924;DHT22;27613;48.116;11.656;2023-04-01T01:40:46;7.50;99.90
41924;DHT22;27613;48.116;11.656;2023-04-01T01:43:16;7.60;99.90
41924;DHT22;27613;48.116;11.656;2023-04-01T01:45:47;7.60;99.90
41924;DHT22;27613;48.116;11.656;2023-04-01T01:48:15;7.50;99.90
41924;DHT22;27613;48.116;11.656;2023-04-01T01:50:43;7.40;99.90
41924;DHT22;27613;48.116;11.656;2023-04-01T01:53:11;7.50;99.90
41924;DHT22;27613;48.116;11.656;2023-04-01T01:55:40;7.40;99.90
41924;DHT22;27613;48.116;11.656;2023-04-01T02:00:41;7.40;99.90
41924;DHT22;27613;48.116;11.656;2023-04-01T02:03:10;7.40;99.90
41924;DHT22;27613;48.116;11.656;2023-04-01T02:05:38;7.40;99.90
41924;DHT22;27613;48.116;11.656;2023-04-01T02:08:06;7.50;99.90
41924;DHT22;27613;48.116;11.656;2023-04-01T02:10:36;7.40;99.90
41924;DHT22;27613;48.116;11.656;2023-04-01T02:13:07;7.40;99.90
41924;DHT22;27613;48.116;11.656;2023-04-01T02:15:40;7.40;99.90
41924;DHT22;27613;48.116;11.656;2023-04-01T02:18:07;7.40;99.90
41924;DHT22;27613;48.116;11.656;2023-04-01T02:20:35;7.40;99.90
41924;DHT22;27613;48.116;11.656;2023-04-01T02:23:02;7.40;99.90
41924;DHT22;27613;48.116;11.656;2023-04-01T02:25:35;7.40;99.90
41924;DHT22;27613;48.116;11.656;2023-04-01T02:28:02;7.40;99.90
41924;DHT22;27613;48.116;11.656;2023-04-01T02:30:32;7.40;99.90
41924;DHT22;27613;48.116;11.656;2023-04-01T02:32:59;7.50;99.90
41924;DHT22;27613;48.116;11.656;2023-04-01T02:35:25;7.50;99.90
41924;DHT22;27613;48.116;11.656;2023-04-01T02:37:52;7.50;99.90
41924;DHT22;27613;48.116;11.656;2023-04-01T02:40:19;7.50;99.90
41924;DHT22;27613;48.116;11.656;2023-04-01T02:42:45;7.50;99.90
41924;DHT22;27613;48.116;11.656;2023-04-01T02:45:11;7.50;99.90
41924;DHT22;27613;48.116;11.656;2023-04-01T02:47:37;7.50;99.90
41924;DHT22;27613;48.116;11.656;2023-04-01T02:50:03;7.50;99.90
41924;DHT22;27613;48.116;11.656;2023-04-01T02:52:30;7.50;99.90
41924;DHT22;27613;48.116;11.656;2023-04-01T02:54:56;7.40;99.90
41924;DHT22;27613;48.116;11.656;2023-04-01T02:57:23;7.40;99.90
41924;DHT22;27613;48.116;11.656;2023-04-01T02:59:48;7.40;99.90
41924;DHT22;27613;48.116;11.656;2023-04-01T03:02:15;7.40;99.90
41924;DHT22;27613;48.116;11.656;2023-04-01T03:04:40;7.40;99.90
41924;DHT22;27613;48.116;11.656;2023-04-01T03:07:06;7.40;99.90
41924;DHT22;27613;48.116;11.656;2023-04-01T03:09:32;7.40;99.90
41924;DHT22;27613;48.116;11.656;2023-04-01T03:11:57;7.40;99.90
41924;DHT22;27613;48.116;11.656;2023-04-01T03:14:23;7.40;99.90
41924;DHT22;27613;48.116;11.656;2023-04-01T03:16:48;7.40;99.90
41924;DHT22;27613;48.116;11.656;2023-04-01T03:19:14;7.30;99.90
41924;DHT22;27613;48.116;11.656;2023-04-01T03:21:40;7.20;99.90
41924;DHT22;27613;48.116;11.656;2023-04-01T03:24:06;7.20;99.90
41924;DHT22;27613;48.116;11.656;2023-04-01T03:26:31;7.30;99.90
41924;DHT22;27613;48.116;11.656;2023-04-01T03:28:57;7.30;99.90
41924;DHT22;27613;48.116;11.656;2023-04-01T03:31:23;7.30;99.90
41924;DHT22;27613;48.116;11.656;2023-04-01T03:33:48;7.20;99.90
41924;DHT22;27613;48.116;11.656;2023-04-01T03:36:14;7.20;99.90
41924;DHT22;27613;48.116;11.656;2023-04-01T03:38:41;7.10;99.90
41924;DHT22;27613;48.116;11.656;2023-04-01T03:41:07;7.10;99.90
41924;DHT22;27613;48.116;11.656;2023-04-01T03:43:33;7.10;99.90
41924;DHT22;27613;48.116;11.656;2023-04-01T03:45:58;7.10;99.90
41924;DHT22;27613;48.116;11.656;2023-04-01T03:48:24;7.00;99.90
41924;DHT22;27613;48.116;11.656;2023-04-01T03:50:51;6.90;99.90
41924;DHT22;27613;48.116;11.656;2023-04-01T03:53:17;6.90;99.90
41924;DHT22;27613;48.116;11.656;2023-04-01T03:55:42;7.00;99.90
41924;DHT22;27613;48.116;11.656;2023-04-01T03:58:08;7.00;99.90
41924;DHT22;27613;48.116;11.656;2023-04-01T04:00:34;7.00;99.90
41924;DHT22;27613;48.116;11.656;2023-04-01T04:03:00;7.00;99.90
41924;DHT22;27613;48.116;11.656;2023-04-01T04:05:26;7.00;99.90
41924;DHT22;27613;48.116;11.656;2023-04-01T04:07:52;6.90;99.90
41924;DHT22;27613;48.116;11.656;2023-04-01T04:10:18;7.00;99.90
41924;DHT22;27613;48.116;11.656;2023-04-01T04:12:44;6.90;99.90
41924;DHT22;27613;48.116;11.656;2023-04-01T04:15:11;6.90;99.90
41924;DHT22;27613;48.116;11.656;2023-04-01T04:17:36;6.90;99.90
41924;DHT22;27613;48.116;11.656;2023-04-01T04:20:02;6.80;99.90
41924;DHT22;27613;48.116;11.656;2023-04-01T04:22:28;6.80;99.90
41924;DHT22;27613;48.116;11.656;2023-04-01T04:24:53;6.80;99.90
41924;DHT22;27613;48.116;11.656;2023-04-01T04:27:19;6.80;99.90
41924;DHT22;27613;48.116;11.656;2023-04-01T04:29:44;6.90;99.90
41924;DHT22;27613;48.116;11.656;2023-04-01T04:32:10;6.90;99.90
41924;DHT22;27613;48.116;11.656;2023-04-01T04:34:36;6.90;99.90
41924;DHT22;27613;48.116;11.656;2023-04-01T04:37:01;6.90;99.90
41924;DHT22;27613;48.116;11.656;2023-04-01T04:39:27;7.00;99.90
41924;DHT22;27613;48.116;11.656;2023-04-01T04:41:53;6.90;99.90
41924;DHT22;27613;48.116;11.656;2023-04-01T04:44:18;6.90;99.90
41924;DHT22;27613;48.116;11.656;2023-04-01T04:46:44;6.90;99.90
41924;DHT22;27613;48.116;11.656;2023-04-01T04:49:09;7.00;99.90
41924;DHT22;27613;48.116;11.656;2023-04-01T04:51:35;7.00;99.90
41924;DHT22;27613;48.116;11.656;2023-04-01T04:54:04;7.00;99.90
41924;DHT22;27613;48.116;11.656;2023-04-01T04:56:29;7.00;99.90
41924;DHT22;27613;48.116;11.656;2023-04-01T04:58:56;7.00;99.90
41924;DHT22;27613;48.116;11.656;2023-04-01T05:01:22;7.00;99.90
41924;DHT22;27613;48.116;11.656;2023-04-01T05:03:47;7.10;99.90
41924;DHT22;27613;48.116;11.656;2023-04-01T05:06:14;7.10;99.90
41924;DHT22;27613;48.116;11.656;2023-04-01T05:08:41;7.10;99.90
41924;DHT22;27613;48.116;11.656;2023-04-01T05:11:14;7.10;99.90
41924;DHT22;27613;48.116;11.656;2023-04-01T05:13:40;7.10;99.90
41924;DHT22;27613;48.116;11.656;2023-04-01T05:16:14;7.20;99.90
41924;DHT22;27613;48.116;11.656;2023-04-01T05:18:40;7.20;99.90
41924;DHT22;27613;48.116;11.656;2023-04-01T05:21:08;7.30;99.90
41924;DHT22;27613;48.116;11.656;2023-04-01T05:23:34;7.30;99.90
41924;DHT22;27613;48.116;11.656;2023-04-01T05:26:05;7.40;99.90
41924;DHT22;27613;48.116;11.656;2023-04-01T05:28:30;7.40;99.90
41924;DHT22;27613;48.116;11.656;2023-04-01T05:30:59;7.40;99.90
41924;DHT22;27613;48.116;11.656;2023-04-01T05:33:25;7.50;99.90
41924;DHT22;27613;48.116;11.656;2023-04-01T05:35:51;7.50;99.90
41924;DHT22;27613;48.116;11.656;2023-04-01T05:38:16;7.50;99.90
41924;DHT22;27613;48.116;11.656;2023-04-01T05:40:42;7.50;99.90
41924;DHT22;27613;48.116;11.656;2023-04-01T05:43:07;7.50;99.90
41924;DHT22;27613;48.116;11.656;2023-04-01T05:45:34;7.60;99.90
41924;DHT22;27613;48.116;11.656;2023-04-01T05:48:00;7.50;99.90
41924;DHT22;27613;48.116;11.656;2023-04-01T05:50:25;7.60;99.90
41924;DHT22;27613;48.116;11.656;2023-04-01T05:52:51;7.60;99.90
41924;DHT22;27613;48.116;11.656;2023-04-01T05:55:17;7.60;99.90
41924;DHT22;27613;48.116;11.656;2023-04-01T05:57:44;7.70;99.90
41924;DHT22;27613;48.116;11.656;2023-04-01T06:00:11;7.70;99.90
41924;DHT22;27613;48.116;11.656;2023-04-01T06:02:37;7.80;99.90
41924;DHT22;27613;48.116;11.656;2023-04-01T06:05:22;7.80;99.90
41924;DHT22;27613;48.116;11.656;2023-04-01T06:07:51;7.80;99.90
41924;DHT22;27613;48.116;11.656;2023-04-01T06:10:21;7.90;99.90
41924;DHT22;27613;48.116;11.656;2023-04-01T06:18:50;8.00;99.90
41924;DHT22;27613;48.116;11.656;2023-04-01T06:21:27;8.00;99.90
41924;DHT22;27613;48.116;11.656;2023-04-01T06:35:54;8.10;99.90
41924;DHT22;27613;48.116;11.656;2023-04-01T06:41:51;8.20;99.90
41924;DHT22;27613;48.116;11.656;2023-04-01T06:47:18;8.30;99.90
41924;DHT22;27613;48.116;11.656;2023-04-01T06:52:31;8.40;99.90
41924;DHT22;27613;48.116;11.656;2023-04-01T06:58:23;8.30;99.90
41924;DHT22;27613;48.116;11.656;2023-04-01T07:00:52;8.40;99.90
41924;DHT22;27613;48.116;11.656;2023-04-01T07:03:38;8.40;99.90
41924;DHT22;27613;48.116;11.656;2023-04-01T07:06:10;8.40;99.90
41924;DHT22;27613;48.116;11.656;2023-04-01T07:08:40;8.50;99.90
41924;DHT22;27613;48.116;11.656;2023-04-01T07:11:10;8.70;99.90
41924;DHT22;27613;48.116;11.656;2023-04-01T07:13:54;8.90;99.40
41924;DHT22;27613;48.116;11.656;2023-04-01T07:16:26;8.90;98.20
41924;DHT22;27613;48.116;11.656;2023-04-01T07:21:47;9.00;98.10
41924;DHT22;27613;48.116;11.656;2023-04-01T07:24:20;9.10;98.20
41924;DHT22;27613;48.116;11.656;2023-04-01T07:26:52;9.00;97.60
41924;DHT22;27613;48.116;11.656;2023-04-01T07:29:18;8.90;97.20
41924;DHT22;27613;48.116;11.656;2023-04-01T07:37:47;8.90;97.20
41924;DHT22;27613;48.116;11.656;2023-04-01T07:40:36;9.20;96.30
41924;DHT22;27613;48.116;11.656;2023-04-01T07:43:41;9.10;96.60
41924;DHT22;27613;48.116;11.656;2023-04-01T07:49:11;9.50;95.20
41924;DHT22;27613;48.116;11.656;2023-04-01T07:51:52;9.30;95.30
41924;DHT22;27613;48.116;11.656;2023-04-01T07:57:14;9.30;94.70
41924;DHT22;27613;48.116;11.656;2023-04-01T07:59:58;9.50;94.70
41924;DHT22;27613;48.116;11.656;2023-04-01T08:02:44;9.50;94.60
41924;DHT22;27613;48.116;11.656;2023-04-01T08:05:26;9.50;94.40
41924;DHT22;27613;48.116;11.656;2023-04-01T08:13:44;9.70;93.90
41924;DHT22;27613;48.116;11.656;2023-04-01T08:16:23;9.70;94.10
41924;DHT22;27613;48.116;11.656;2023-04-01T08:21:35;9.80;93.60
41924;DHT22;27613;48.116;11.656;2023-04-01T08:24:27;9.90;92.80
41924;DHT22;27613;48.116;11.656;2023-04-01T08:26:57;10.00;92.90
41924;DHT22;27613;48.116;11.656;2023-04-01T08:29:36;10.40;92.70
41924;DHT22;27613;48.116;11.656;2023-04-01T08:32:10;10.30;91.60
41924;DHT22;27613;48.116;11.656;2023-04-01T08:34:39;10.50;91.20
41924;DHT22;27613;48.116;11.656;2023-04-01T08:37:21;10.80;90.20
41924;DHT22;27613;48.116;11.656;2023-04-01T08:39:52;11.80;88.20
41924;DHT22;27613;48.116;11.656;2023-04-01T08:48:23;12.30;83.30
41924;DHT22;27613;48.116;11.656;2023-04-01T08:56:36;12.30;79.80
41924;DHT22;27613;48.116;11.656;2023-04-01T08:59:30;11.40;83.20
41924;DHT22;27613;48.116;11.656;2023-04-01T09:25:33;12.50;80.00
41924;DHT22;27613;48.116;11.656;2023-04-01T09:28:10;13.70;76.20
41924;DHT22;27613;48.116;11.656;2023-04-01T09:39:37;11.50;80.10
41924;DHT22;27613;48.116;11.656;2023-04-01T09:42:29;11.60;80.40
41924;DHT22;27613;48.116;11.656;2023-04-01T09:45:07;11.70;80.20
41924;DHT22;27613;48.116;11.656;2023-04-01T09:53:08;11.70;78.70
41924;DHT22;27613;48.116;11.656;2023-04-01T09:55:57;11.70;78.70
41924;DHT22;27613;48.116;11.656;2023-04-01T09:58:59;12.10;78.40
41924;DHT22;27613;48.116;11.656;2023-04-01T10:02:00;12.30;77.40
41924;DHT22;27613;48.116;11.656;2023-04-01T10:10:19;13.30;75.00
41924;DHT22;27613;48.116;11.656;2023-04-01T10:18:48;12.60;76.20
41924;DHT22;27613;48.116;11.656;2023-04-01T10:26:59;12.20;77.00
41924;DHT22;27613;48.116;11.656;2023-04-01T10:29:49;12.20;76.60
41924;DHT22;27613;48.116;11.656;2023-04-01T10:32:36;12.10;77.20
41924;DHT22;27613;48.116;11.656;2023-04-01T10:46:28;13.00;74.90
41924;DHT22;27613;48.116;11.656;2023-04-01T10:52:17;12.30;77.20
41924;DHT22;27613;48.116;11.656;2023-04-01T10:55:01;12.20;77.30
41924;DHT22;27613;48.116;11.656;2023-04-01T11:20:27;11.40;86.30
41924;DHT22;27613;48.116;11.656;2023-04-01T11:48:40;11.00;90.60
41924;DHT22;27613;48.116;11.656;2023-04-01T11:57:19;10.50;92.10
41924;DHT22;27613;48.116;11.656;2023-04-01T12:05:34;9.50;99.90
41924;DHT22;27613;48.116;11.656;2023-04-01T12:11:15;9.30;99.90
41924;DHT22;27613;48.116;11.656;2023-04-01T12:14:09;8.80;99.90
41924;DHT22;27613;48.116;11.656;2023-04-01T12:22:34;8.60;99.90
41924;DHT22;27613;48.116;11.656;2023-04-01T12:27:53;8.60;99.90
41924;DHT22;27613;48.116;11.656;2023-04-01T12:30:40;8.60;99.90
41924;DHT22;27613;48.116;11.656;2023-04-01T12:33:20;8.50;99.90
41924;DHT22;27613;48.116;11.656;2023-04-01T12:36:01;8.60;99.90
41924;DHT22;27613;48.116;11.656;2023-04-01T12:41:33;8.40;99.90
41924;DHT22;27613;48.116;11.656;2023-04-01T12:44:29;8.40;99.90
41924;DHT22;27613;48.116;11.656;2023-04-01T12:53:08;8.00;99.90
41924;DHT22;27613;48.116;11.656;2023-04-01T12:55:41;7.90;99.90
41924;DHT22;27613;48.116;11.656;2023-04-01T13:03:52;8.00;99.90
41924;DHT22;27613;48.116;11.656;2023-04-01T13:06:24;8.00;99.90
41924;DHT22;27613;48.116;11.656;2023-04-01T13:25:32;7.90;99.90
41924;DHT22;27613;48.116;11.656;2023-04-01T13:31:14;8.00;99.90
41924;DHT22;27613;48.116;11.656;2023-04-01T13:39:24;8.00;99.90
41924;DHT22;27613;48.116;11.656;2023-04-01T13:44:37;8.00;99.90
41924;DHT22;27613;48.116;11.656;2023-04-01T13:49:59;8.00;99.90
41924;DHT22;27613;48.116;11.656;2023-04-01T13:58:03;8.10;99.90
41924;DHT22;27613;48.116;11.656;2023-04-01T14:00:42;8.20;99.90
41924;DHT22;27613;48.116;11.656;2023-04-01T14:11:45;8.40;99.90
41924;DHT22;27613;48.116;11.656;2023-04-01T14:25:25;8.20;99.90
41924;DHT22;27613;48.116;11.656;2023-04-01T14:30:43;8.20;99.90
41924;DHT22;27613;48.116;11.656;2023-04-01T14:33:31;8.20;99.90
41924;DHT22;27613;48.116;11.656;2023-04-01T14:41:26;8.50;99.90
41924;DHT22;27613;48.116;11.656;2023-04-01T14:44:18;8.50;99.90
41924;DHT22;27613;48.116;11.656;2023-04-01T14:49:41;8.60;99.90
41924;DHT22;27613;48.116;11.656;2023-04-01T14:54:49;8.70;99.90
41924;DHT22;27613;48.116;11.656;2023-04-01T14:57:30;8.60;99.90
41924;DHT22;27613;48.116;11.656;2023-04-01T15:00:13;8.60;99.90
41924;DHT22;27613;48.116;11.656;2023-04-01T15:02:57;8.60;99.90
41924;DHT22;27613;48.116;11.656;2023-04-01T15:05:42;8.50;99.90
41924;DHT22;27613;48.116;11.656;2023-04-01T15:11:24;8.60;99.90
41924;DHT22;27613;48.116;11.656;2023-04-01T15:16:27;8.60;99.90
41924;DHT22;27613;48.116;11.656;2023-04-01T15:27:47;8.30;99.90
41924;DHT22;27613;48.116;11.656;2023-04-01T15:38:47;8.50;99.90
41924;DHT22;27613;48.116;11.656;2023-04-01T15:41:16;8.60;99.90
41924;DHT22;27613;48.116;11.656;2023-04-01T15:46:47;8.80;99.90
41924;DHT22;27613;48.116;11.656;2023-04-01T15:49:37;8.90;99.90
41924;DHT22;27613;48.116;11.656;2023-04-01T15:57:52;9.10;99.90
41924;DHT22;27613;48.116;11.656;2023-04-01T16:02:51;9.10;99.90
41924;DHT22;27613;48.116;11.656;2023-04-01T16:05:38;9.10;99.90
41924;DHT22;27613;48.116;11.656;2023-04-01T16:08:23;9.10;99.90
41924;DHT22;27613;48.116;11.656;2023-04-01T16:11:14;9.30;99.90
41924;DHT22;27613;48.116;11.656;2023-04-01T16:19:28;9.40;99.90
41924;DHT22;27613;48.116;11.656;2023-04-01T16:22:23;9.40;99.90
41924;DHT22;27613;48.116;11.656;2023-04-01T16:30:36;9.40;99.90
41924;DHT22;27613;48.116;11.656;2023-04-01T16:33:31;9.30;99.90
41924;DHT22;27613;48.116;11.656;2023-04-01T16:45:17;9.30;99.90
41924;DHT22;27613;48.116;11.656;2023-04-01T16:47:49;9.20;99.90
41924;DHT22;27613;48.116;11.656;2023-04-01T16:50:27;9.20;99.90
41924;DHT22;27613;48.116;11.656;2023-04-01T16:55:55;9.10;99.90
41924;DHT22;27613;48.116;11.656;2023-04-01T17:01:23;9.10;99.40
41924;DHT22;27613;48.116;11.656;2023-04-01T17:03:53;9.10;99.90
41924;DHT22;27613;48.116;11.656;2023-04-01T17:06:28;9.00;99.40
41924;DHT22;27613;48.116;11.656;2023-04-01T17:14:44;9.00;98.10
41924;DHT22;27613;48.116;11.656;2023-04-01T17:17:19;9.00;97.60
41924;DHT22;27613;48.116;11.656;2023-04-01T17:20:05;9.00;98.20
41924;DHT22;27613;48.116;11.656;2023-04-01T17:36:20;8.90;99.30
41924;DHT22;27613;48.116;11.656;2023-04-01T17:39:45;8.80;99.90
41924;DHT22;27613;48.116;11.656;2023-04-01T17:42:14;8.80;99.90
41924;DHT22;27613;48.116;11.656;2023-04-01T17:53:31;8.90;98.50
41924;DHT22;27613;48.116;11.656;2023-04-01T17:56:05;8.80;99.00
41924;DHT22;27613;48.116;11.656;2023-04-01T18:01:57;8.80;98.80
41924;DHT22;27613;48.116;11.656;2023-04-01T18:04:35;8.80;98.70
41924;DHT22;27613;48.116;11.656;2023-04-01T18:10:11;8.90;98.00
41924;DHT22;27613;48.116;11.656;2023-04-01T18:13:14;8.90;97.90
41924;DHT22;27613;48.116;11.656;2023-04-01T18:18:41;8.80;97.90
41924;DHT22;27613;48.116;11.656;2023-04-01T18:21:23;8.90;97.50
41924;DHT22;27613;48.116;11.656;2023-04-01T18:24:02;8.90;97.70
41924;DHT22;27613;48.116;11.656;2023-04-01T18:26:33;8.90;97.80
41924;DHT22;27613;48.116;11.656;2023-04-01T18:32:26;8.70;99.90
41924;DHT22;27613;48.116;11.656;2023-04-01T18:35:18;8.50;99.90
41924;DHT22;27613;48.116;11.656;2023-04-01T18:40:42;8.30;99.90
41924;DHT22;27613;48.116;11.656;2023-04-01T18:43:33;8.20;99.90
41924;DHT22;27613;48.116;11.656;2023-04-01T18:46:16;8.20;99.90
41924;DHT22;27613;48.116;11.656;2023-04-01T18:49:07;8.20;99.90
41924;DHT22;27613;48.116;11.656;2023-04-01T18:51:54;8.10;99.90
41924;DHT22;27613;48.116;11.656;2023-04-01T18:57:53;8.10;99.90
41924;DHT22;27613;48.116;11.656;2023-04-01T19:00:32;8.00;99.90
41924;DHT22;27613;48.116;11.656;2023-04-01T19:03:11;7.90;99.90
41924;DHT22;27613;48.116;11.656;2023-04-01T19:05:40;8.00;99.90
41924;DHT22;27613;48.116;11.656;2023-04-01T19:10:59;8.00;99.90
41924;DHT22;27613;48.116;11.656;2023-04-01T19:16:26;8.00;99.90
41924;DHT22;27613;48.116;11.656;2023-04-01T19:32:20;8.00;99.90
41924;DHT22;27613;48.116;11.656;2023-04-01T19:35:12;8.00;99.90
41924;DHT22;27613;48.116;11.656;2023-04-01T19:38:03;8.00;99.90
41924;DHT22;27613;48.116;11.656;2023-04-01T19:53:45;8.00;99.90
41924;DHT22;27613;48.116;11.656;2023-04-01T19:56:22;7.90;99.90
41924;DHT22;27613;48.116;11.656;2023-04-01T20:01:44;7.90;99.90
41924;DHT22;27613;48.116;11.656;2023-04-01T20:10:07;7.80;99.90
41924;DHT22;27613;48.116;11.656;2023-04-01T20:15:40;7.70;99.90
41924;DHT22;27613;48.116;11.656;2023-04-01T20:18:16;7.70;99.90
41924;DHT22;27613;48.116;11.656;2023-04-01T20:21:05;7.70;99.90
41924;DHT22;27613;48.116;11.656;2023-04-01T20:26:40;7.70;99.90
41924;DHT22;27613;48.116;11.656;2023-04-01T20:40:40;7.50;99.90
41924;DHT22;27613;48.116;11.656;2023-04-01T20:49:23;7.50;99.90
41924;DHT22;27613;48.116;11.656;2023-04-01T20:52:19;7.60;99.90
41924;DHT22;27613;48.116;11.656;2023-04-01T20:55:06;7.50;99.90
41924;DHT22;27613;48.116;11.656;2023-04-01T20:58:04;7.50;99.90
41924;DHT22;27613;48.116;11.656;2023-04-01T21:00:45;7.50;99.90
41924;DHT22;27613;48.116;11.656;2023-04-01T21:09:14;7.50;99.90
41924;DHT22;27613;48.116;11.656;2023-04-01T21:17:28;7.50;99.90
41924;DHT22;27613;48.116;11.656;2023-04-01T21:20:09;7.50;99.90
41924;DHT22;27613;48.116;11.656;2023-04-01T21:30:49;7.50;99.90
41924;DHT22;27613;48.116;11.656;2023-04-01T21:45:12;7.50;99.90
41924;DHT22;27613;48.116;11.656;2023-04-01T21:53:14;7.60;99.90
41924;DHT22;27613;48.116;11.656;2023-04-01T21:55:53;7.60;99.90
41924;DHT22;27613;48.116;11.656;2023-04-01T22:01:31;7.60;99.90
41924;DHT22;27613;48.116;11.656;2023-04-01T22:10:24;7.60;99.90
41924;DHT22;27613;48.116;11.656;2023-04-01T22:15:48;7.60;99.90
41924;DHT22;27613;48.116;11.656;2023-04-01T22:18:21;7.50;99.90
41924;DHT22;27613;48.116;11.656;2023-04-01T22:26:44;7.50;99.90
41924;DHT22;27613;48.116;11.656;2023-04-01T22:32:13;7.60;99.90
41924;DHT22;27613;48.116;11.656;2023-04-01T22:35:03;7.60;99.90
41924;DHT22;27613;48.116;11.656;2023-04-01T22:40:25;7.60;99.90
41924;DHT22;27613;48.116;11.656;2023-04-01T22:42:56;7.60;99.90
41924;DHT22;27613;48.116;11.656;2023-04-01T22:45:36;7.70;99.90
41924;DHT22;27613;48.116;11.656;2023-04-01T22:48:09;7.70;99.90
41924;DHT22;27613;48.116;11.656;2023-04-01T22:50:51;7.70;99.90
41924;DHT22;27613;48.116;11.656;2023-04-01T22:55:57;7.70;99.90
41924;DHT22;27613;48.116;11.656;2023-04-01T22:58:54;7.60;99.90
41924;DHT22;27613;48.116;11.656;2023-04-01T23:01:25;7.60;99.90
41924;DHT22;27613;48.116;11.656;2023-04-01T23:03:52;7.60;99.90
41924;DHT22;27613;48.116;11.656;2023-04-01T23:06:30;7.70;99.90
41924;DHT22;27613;48.116;11.656;2023-04-01T23:09:31;7.70;99.90
41924;DHT22;27613;48.116;11.656;2023-04-01T23:12:02;7.70;99.90
41924;DHT22;27613;48.116;11.656;2023-04-01T23:14:47;7.70;99.90
41924;DHT22;27613;48.116;11.656;2023-04-01T23:17:25;7.70;99.90
41924;DHT22;27613;48.116;11.656;2023-04-01T23:20:14;7.70;99.90
41924;DHT22;27613;48.116;11.656;2023-04-01T23:28:43;7.60;99.90
41924;DHT22;27613;48.116;11.656;2023-04-01T23:31:25;7.60;99.90
41924;DHT22;27613;48.116;11.656;2023-04-01T23:34:00;7.60;99.90
41924;DHT22;27613;48.116;11.656;2023-04-01T23:36:28;7.60;99.90
41924;DHT22;27613;48.116;11.656;2023-04-01T23:38:55;7.60;99.90
41924;DHT22;27613;48.116;11.656;2023-04-01T23:41:29;7.60;99.90
41924;DHT22;27613;48.116;11.656;2023-04-01T23:44:04;7.60;99.90
41924;DHT22;27613;48.116;11.656;2023-04-01T23:46:32;7.60;99.90
41924;DHT22;27613;48.116;11.656;2023-04-01T23:49:00;7.60;99.90
41924;DHT22;27613;48.116;11.656;2023-04-01T23:51:29;7.60;99.90
41924;DHT22;27613;48.116;11.656;2023-04-01T23:54:13;7.60;99.90
41924;DHT22;27613;48.116;11.656;2023-04-01T23:56:45;7.60;99.90
41924;DHT22;27613;48.116;11.656;2023-04-01T23:59:17;7.60;99.90
